sensor_id;sensor_type;location;lat;lon;timestamp;P1;durP1;ratioP1;P2;durP2;ratioP2
24547;SDS011;12713;51.624;4.924;2023-07-24T00:01:46;3.58;;;1.30;;
24547;SDS011;12713;51.624;4.924;2023-07-24T00:04:20;2.95;;;1.60;;
24547;SDS011;12713;51.624;4.924;2023-07-24T00:06:55;3.17;;;1.85;;
24547;SDS011;12713;51.624;4.924;2023-07-24T00:09:23;2.35;;;1.60;;
24547;SDS011;12713;51.624;4.924;2023-07-24T00:11:53;1.73;;;1.33;;
24547;SDS011;12713;51.624;4.924;2023-07-24T00:14:21;3.85;;;2.10;;
24547;SDS011;12713;51.624;4.924;2023-07-24T00:16:47;4.30;;;1.73;;
24547;SDS011;12713;51.624;4.924;2023-07-24T00:19:16;2.58;;;1.88;;
24547;SDS011;12713;51.624;4.924;2023-07-24T00:21:42;2.85;;;2.10;;
24547;SDS011;12713;51.624;4.924;2023-07-24T00:24:08;2.70;;;2.10;;
24547;SDS011;12713;51.624;4.924;2023-07-24T00:26:36;2.58;;;2.00;;
24547;SDS011;12713;51.624;4.924;2023-07-24T00:29:05;3.50;;;2.00;;
24547;SDS011;12713;51.624;4.924;2023-07-24T00:31:31;4.10;;;1.90;;
24547;SDS011;12713;51.624;4.924;2023-07-24T00:34:21;3.67;;;2.08;;
24547;SDS011;12713;51.624;4.924;2023-07-24T00:36:47;2.67;;;2.30;;
24547;SDS011;12713;51.624;4.924;2023-07-24T00:42:19;3.35;;;2.83;;
24547;SDS011;12713;51.624;4.924;2023-07-24T00:48:01;5.22;;;2.72;;
24547;SDS011;12713;51.624;4.924;2023-07-24T00:50:28;5.07;;;3.38;;
24547;SDS011;12713;51.624;4.924;2023-07-24T00:52:55;4.25;;;3.60;;
24547;SDS011;12713;51.624;4.924;2023-07-24T00:55:23;5.97;;;4.18;;
24547;SDS011;12713;51.624;4.924;2023-07-24T00:57:55;7.35;;;4.32;;
24547;SDS011;12713;51.624;4.924;2023-07-24T01:00:25;6.45;;;5.38;;
24547;SDS011;12713;51.624;4.924;2023-07-24T01:03:00;9.20;;;5.60;;
24547;SDS011;12713;51.624;4.924;2023-07-24T01:15:03;10.85;;;8.35;;
24547;SDS011;12713;51.624;4.924;2023-07-24T01:20:29;11.65;;;8.75;;
24547;SDS011;12713;51.624;4.924;2023-07-24T01:28:29;12.50;;;9.93;;
24547;SDS011;12713;51.624;4.924;2023-07-24T01:31:05;13.45;;;10.25;;
24547;SDS011;12713;51.624;4.924;2023-07-24T01:33:34;12.70;;;9.85;;
24547;SDS011;12713;51.624;4.924;2023-07-24T01:36:02;13.18;;;10.48;;
24547;SDS011;12713;51.624;4.924;2023-07-24T01:38:31;13.77;;;10.18;;
24547;SDS011;12713;51.624;4.924;2023-07-24T01:40:57;14.00;;;10.02;;
24547;SDS011;12713;51.624;4.924;2023-07-24T01:43:28;14.15;;;9.82;;
24547;SDS011;12713;51.624;4.924;2023-07-24T01:46:02;13.10;;;9.68;;
24547;SDS011;12713;51.624;4.924;2023-07-24T01:48:37;14.60;;;9.35;;
24547;SDS011;12713;51.624;4.924;2023-07-24T01:51:06;11.93;;;8.38;;
24547;SDS011;12713;51.624;4.924;2023-07-24T01:53:34;11.18;;;8.30;;
24547;SDS011;12713;51.624;4.924;2023-07-24T01:56:00;10.88;;;7.53;;
24547;SDS011;12713;51.624;4.924;2023-07-24T01:58:26;12.18;;;7.38;;
24547;SDS011;12713;51.624;4.924;2023-07-24T02:03:45;7.70;;;6.90;;
24547;SDS011;12713;51.624;4.924;2023-07-24T02:06:11;8.48;;;7.55;;
24547;SDS011;12713;51.624;4.924;2023-07-24T02:08:37;9.07;;;6.28;;
24547;SDS011;12713;51.624;4.924;2023-07-24T02:11:04;11.98;;;6.13;;
24547;SDS011;12713;51.624;4.924;2023-07-24T02:13:33;6.88;;;5.65;;
24547;SDS011;12713;51.624;4.924;2023-07-24T02:15:59;8.52;;;6.50;;
24547;SDS011;12713;51.624;4.924;2023-07-24T02:24:03;8.43;;;6.43;;
24547;SDS011;12713;51.624;4.924;2023-07-24T02:26:36;9.05;;;6.22;;
24547;SDS011;12713;51.624;4.924;2023-07-24T02:29:22;8.73;;;6.20;;
24547;SDS011;12713;51.624;4.924;2023-07-24T02:31:58;7.70;;;5.72;;
24547;SDS011;12713;51.624;4.924;2023-07-24T02:34:29;10.45;;;5.95;;
24547;SDS011;12713;51.624;4.924;2023-07-24T02:37:24;7.07;;;5.57;;
24547;SDS011;12713;51.624;4.924;2023-07-24T02:40:09;6.93;;;5.28;;
24547;SDS011;12713;51.624;4.924;2023-07-24T02:42:43;9.68;;;5.60;;
24547;SDS011;12713;51.624;4.924;2023-07-24T02:45:15;10.02;;;5.40;;
24547;SDS011;12713;51.624;4.924;2023-07-24T02:47:53;8.80;;;5.28;;
24547;SDS011;12713;51.624;4.924;2023-07-24T02:50:20;6.03;;;4.80;;
24547;SDS011;12713;51.624;4.924;2023-07-24T02:52:53;6.45;;;4.68;;
24547;SDS011;12713;51.624;4.924;2023-07-24T02:55:34;6.57;;;4.90;;
24547;SDS011;12713;51.624;4.924;2023-07-24T02:58:15;6.88;;;4.88;;
24547;SDS011;12713;51.624;4.924;2023-07-24T03:03:47;5.88;;;4.85;;
24547;SDS011;12713;51.624;4.924;2023-07-24T03:06:33;6.15;;;4.45;;
24547;SDS011;12713;51.624;4.924;2023-07-24T03:12:27;6.10;;;4.03;;
24547;SDS011;12713;51.624;4.924;2023-07-24T03:14:58;6.13;;;5.00;;
24547;SDS011;12713;51.624;4.924;2023-07-24T03:23:38;6.25;;;4.88;;
24547;SDS011;12713;51.624;4.924;2023-07-24T03:26:06;5.70;;;4.57;;
24547;SDS011;12713;51.624;4.924;2023-07-24T03:28:33;8.70;;;5.50;;
24547;SDS011;12713;51.624;4.924;2023-07-24T03:30:59;8.95;;;5.40;;
24547;SDS011;12713;51.624;4.924;2023-07-24T03:33:25;7.10;;;5.30;;
24547;SDS011;12713;51.624;4.924;2023-07-24T03:36:06;8.85;;;6.10;;
24547;SDS011;12713;51.624;4.924;2023-07-24T03:38:32;10.65;;;6.38;;
24547;SDS011;12713;51.624;4.924;2023-07-24T03:41:17;9.70;;;6.63;;
24547;SDS011;12713;51.624;4.924;2023-07-24T03:43:45;7.20;;;5.70;;
24547;SDS011;12713;51.624;4.924;2023-07-24T03:46:27;9.60;;;5.55;;
24547;SDS011;12713;51.624;4.924;2023-07-24T03:48:55;8.85;;;6.63;;
24547;SDS011;12713;51.624;4.924;2023-07-24T03:51:21;8.00;;;6.10;;
24547;SDS011;12713;51.624;4.924;2023-07-24T03:53:47;9.23;;;6.15;;
24547;SDS011;12713;51.624;4.924;2023-07-24T03:56:13;8.75;;;5.80;;
24547;SDS011;12713;51.624;4.924;2023-07-24T03:58:39;10.38;;;6.53;;
24547;SDS011;12713;51.624;4.924;2023-07-24T04:01:06;8.68;;;6.32;;
24547;SDS011;12713;51.624;4.924;2023-07-24T04:03:32;9.65;;;6.28;;
24547;SDS011;12713;51.624;4.924;2023-07-24T04:05:58;12.40;;;7.10;;
24547;SDS011;12713;51.624;4.924;2023-07-24T04:08:25;11.40;;;6.22;;
24547;SDS011;12713;51.624;4.924;2023-07-24T04:10:51;12.82;;;5.97;;
24547;SDS011;12713;51.624;4.924;2023-07-24T04:13:17;10.73;;;6.15;;
24547;SDS011;12713;51.624;4.924;2023-07-24T04:15:46;7.90;;;6.03;;
24547;SDS011;12713;51.624;4.924;2023-07-24T04:18:12;8.00;;;5.05;;
24547;SDS011;12713;51.624;4.924;2023-07-24T04:20:39;9.45;;;6.55;;
24547;SDS011;12713;51.624;4.924;2023-07-24T04:23:05;8.80;;;6.05;;
24547;SDS011;12713;51.624;4.924;2023-07-24T04:25:31;7.85;;;5.57;;
24547;SDS011;12713;51.624;4.924;2023-07-24T04:28:00;7.47;;;5.72;;
24547;SDS011;12713;51.624;4.924;2023-07-24T04:30:26;8.73;;;6.38;;
24547;SDS011;12713;51.624;4.924;2023-07-24T04:32:54;9.75;;;6.38;;
24547;SDS011;12713;51.624;4.924;2023-07-24T04:35:20;14.20;;;6.53;;
24547;SDS011;12713;51.624;4.924;2023-07-24T04:37:46;9.52;;;7.07;;
24547;SDS011;12713;51.624;4.924;2023-07-24T04:40:13;10.10;;;5.97;;
24547;SDS011;12713;51.624;4.924;2023-07-24T04:42:41;13.77;;;7.88;;
24547;SDS011;12713;51.624;4.924;2023-07-24T04:45:10;12.55;;;7.28;;
24547;SDS011;12713;51.624;4.924;2023-07-24T04:47:39;12.45;;;8.30;;
24547;SDS011;12713;51.624;4.924;2023-07-24T04:50:05;10.40;;;7.43;;
24547;SDS011;12713;51.624;4.924;2023-07-24T04:52:31;11.07;;;7.63;;
24547;SDS011;12713;51.624;4.924;2023-07-24T04:54:58;15.00;;;9.55;;
24547;SDS011;12713;51.624;4.924;2023-07-24T04:57:24;12.88;;;9.48;;
24547;SDS011;12713;51.624;4.924;2023-07-24T04:59:53;11.52;;;7.78;;
24547;SDS011;12713;51.624;4.924;2023-07-24T05:02:22;13.85;;;9.40;;
24547;SDS011;12713;51.624;4.924;2023-07-24T05:04:48;10.23;;;8.23;;
24547;SDS011;12713;51.624;4.924;2023-07-24T05:07:15;17.83;;;10.13;;
24547;SDS011;12713;51.624;4.924;2023-07-24T05:09:41;12.57;;;9.50;;
24547;SDS011;12713;51.624;4.924;2023-07-24T05:12:09;11.50;;;7.68;;
24547;SDS011;12713;51.624;4.924;2023-07-24T05:14:35;12.98;;;8.73;;
24547;SDS011;12713;51.624;4.924;2023-07-24T05:17:04;15.05;;;8.82;;
24547;SDS011;12713;51.624;4.924;2023-07-24T05:19:30;13.45;;;9.25;;
24547;SDS011;12713;51.624;4.924;2023-07-24T05:21:59;14.25;;;9.98;;
24547;SDS011;12713;51.624;4.924;2023-07-24T05:24:26;17.13;;;10.38;;
24547;SDS011;12713;51.624;4.924;2023-07-24T05:26:55;15.10;;;8.55;;
24547;SDS011;12713;51.624;4.924;2023-07-24T05:29:23;14.32;;;9.45;;
24547;SDS011;12713;51.624;4.924;2023-07-24T05:31:52;14.25;;;8.75;;
24547;SDS011;12713;51.624;4.924;2023-07-24T05:34:25;12.52;;;8.98;;
24547;SDS011;12713;51.624;4.924;2023-07-24T05:36:51;13.60;;;9.68;;
24547;SDS011;12713;51.624;4.924;2023-07-24T05:39:17;13.27;;;9.27;;
24547;SDS011;12713;51.624;4.924;2023-07-24T05:41:43;15.02;;;10.38;;
24547;SDS011;12713;51.624;4.924;2023-07-24T05:44:10;17.90;;;10.23;;
24547;SDS011;12713;51.624;4.924;2023-07-24T05:46:38;15.60;;;9.82;;
24547;SDS011;12713;51.624;4.924;2023-07-24T05:49:04;14.90;;;9.77;;
24547;SDS011;12713;51.624;4.924;2023-07-24T05:51:30;14.63;;;10.23;;
24547;SDS011;12713;51.624;4.924;2023-07-24T05:53:56;17.20;;;11.07;;
24547;SDS011;12713;51.624;4.924;2023-07-24T05:56:22;13.23;;;9.40;;
24547;SDS011;12713;51.624;4.924;2023-07-24T05:58:52;19.27;;;10.80;;
24547;SDS011;12713;51.624;4.924;2023-07-24T06:01:18;16.38;;;10.05;;
24547;SDS011;12713;51.624;4.924;2023-07-24T06:03:44;17.33;;;11.05;;
24547;SDS011;12713;51.624;4.924;2023-07-24T06:06:10;19.08;;;11.45;;
24547;SDS011;12713;51.624;4.924;2023-07-24T06:08:36;16.55;;;10.73;;
24547;SDS011;12713;51.624;4.924;2023-07-24T06:11:04;18.55;;;12.82;;
24547;SDS011;12713;51.624;4.924;2023-07-24T06:13:31;16.88;;;11.95;;
24547;SDS011;12713;51.624;4.924;2023-07-24T06:16:00;22.02;;;13.38;;
24547;SDS011;12713;51.624;4.924;2023-07-24T06:18:35;17.10;;;12.35;;
24547;SDS011;12713;51.624;4.924;2023-07-24T06:21:01;18.13;;;12.18;;
24547;SDS011;12713;51.624;4.924;2023-07-24T06:23:27;20.77;;;13.80;;
24547;SDS011;12713;51.624;4.924;2023-07-24T06:25:53;17.67;;;13.05;;
24547;SDS011;12713;51.624;4.924;2023-07-24T06:28:22;22.60;;;14.85;;
24547;SDS011;12713;51.624;4.924;2023-07-24T06:30:51;21.27;;;14.07;;
24547;SDS011;12713;51.624;4.924;2023-07-24T06:33:18;22.65;;;13.43;;
24547;SDS011;12713;51.624;4.924;2023-07-24T06:35:49;21.05;;;13.13;;
24547;SDS011;12713;51.624;4.924;2023-07-24T06:38:16;20.40;;;13.52;;
24547;SDS011;12713;51.624;4.924;2023-07-24T06:40:42;17.13;;;12.65;;
24547;SDS011;12713;51.624;4.924;2023-07-24T06:43:08;18.55;;;12.70;;
24547;SDS011;12713;51.624;4.924;2023-07-24T06:45:39;21.23;;;12.75;;
24547;SDS011;12713;51.624;4.924;2023-07-24T06:48:11;17.63;;;12.90;;
24547;SDS011;12713;51.624;4.924;2023-07-24T06:50:46;18.48;;;11.98;;
24547;SDS011;12713;51.624;4.924;2023-07-24T06:53:12;14.10;;;10.98;;
24547;SDS011;12713;51.624;4.924;2023-07-24T06:55:39;13.85;;;10.82;;
24547;SDS011;12713;51.624;4.924;2023-07-24T06:58:10;15.27;;;10.68;;
24547;SDS011;12713;51.624;4.924;2023-07-24T07:00:36;16.70;;;10.93;;
24547;SDS011;12713;51.624;4.924;2023-07-24T07:03:04;14.27;;;10.82;;
24547;SDS011;12713;51.624;4.924;2023-07-24T07:05:34;17.17;;;11.00;;
24547;SDS011;12713;51.624;4.924;2023-07-24T07:08:05;14.73;;;10.43;;
24547;SDS011;12713;51.624;4.924;2023-07-24T07:10:34;14.35;;;11.23;;
24547;SDS011;12713;51.624;4.924;2023-07-24T07:13:03;16.15;;;11.93;;
24547;SDS011;12713;51.624;4.924;2023-07-24T07:15:29;18.38;;;12.00;;
24547;SDS011;12713;51.624;4.924;2023-07-24T07:17:55;16.10;;;12.13;;
24547;SDS011;12713;51.624;4.924;2023-07-24T07:20:23;16.40;;;11.50;;
24547;SDS011;12713;51.624;4.924;2023-07-24T07:22:49;15.43;;;11.00;;
24547;SDS011;12713;51.624;4.924;2023-07-24T07:25:15;15.43;;;12.52;;
24547;SDS011;12713;51.624;4.924;2023-07-24T07:27:44;14.88;;;11.93;;
24547;SDS011;12713;51.624;4.924;2023-07-24T07:30:13;17.08;;;12.50;;
24547;SDS011;12713;51.624;4.924;2023-07-24T07:32:42;17.70;;;12.27;;
24547;SDS011;12713;51.624;4.924;2023-07-24T07:35:08;15.15;;;11.25;;
24547;SDS011;12713;51.624;4.924;2023-07-24T07:37:34;17.40;;;11.32;;
24547;SDS011;12713;51.624;4.924;2023-07-24T07:40:03;16.85;;;10.70;;
24547;SDS011;12713;51.624;4.924;2023-07-24T07:42:31;14.07;;;10.77;;
24547;SDS011;12713;51.624;4.924;2023-07-24T07:44:57;13.20;;;10.15;;
24547;SDS011;12713;51.624;4.924;2023-07-24T07:47:23;16.70;;;11.90;;
24547;SDS011;12713;51.624;4.924;2023-07-24T07:52:48;16.50;;;13.20;;
24547;SDS011;12713;51.624;4.924;2023-07-24T07:55:32;16.38;;;12.18;;
24547;SDS011;12713;51.624;4.924;2023-07-24T07:58:06;13.00;;;11.02;;
24547;SDS011;12713;51.624;4.924;2023-07-24T08:00:33;18.48;;;12.45;;
24547;SDS011;12713;51.624;4.924;2023-07-24T08:03:07;15.50;;;10.95;;
24547;SDS011;12713;51.624;4.924;2023-07-24T08:05:33;15.88;;;11.90;;
24547;SDS011;12713;51.624;4.924;2023-07-24T08:07:59;13.82;;;11.68;;
24547;SDS011;12713;51.624;4.924;2023-07-24T08:10:36;13.65;;;11.60;;
24547;SDS011;12713;51.624;4.924;2023-07-24T08:13:22;14.30;;;10.60;;
24547;SDS011;12713;51.624;4.924;2023-07-24T08:15:51;14.10;;;9.15;;
24547;SDS011;12713;51.624;4.924;2023-07-24T08:18:21;12.23;;;9.07;;
24547;SDS011;12713;51.624;4.924;2023-07-24T08:20:56;10.77;;;8.85;;
24547;SDS011;12713;51.624;4.924;2023-07-24T08:29:35;11.18;;;9.00;;
24547;SDS011;12713;51.624;4.924;2023-07-24T08:32:08;10.95;;;9.75;;
24547;SDS011;12713;51.624;4.924;2023-07-24T08:34:41;11.02;;;9.43;;
24547;SDS011;12713;51.624;4.924;2023-07-24T08:37:07;11.18;;;8.98;;
24547;SDS011;12713;51.624;4.924;2023-07-24T08:39:33;11.85;;;9.43;;
24547;SDS011;12713;51.624;4.924;2023-07-24T08:41:59;14.10;;;10.02;;
24547;SDS011;12713;51.624;4.924;2023-07-24T08:44:25;14.13;;;10.00;;
24547;SDS011;12713;51.624;4.924;2023-07-24T08:46:56;11.60;;;9.70;;
24547;SDS011;12713;51.624;4.924;2023-07-24T08:49:22;14.20;;;10.85;;
24547;SDS011;12713;51.624;4.924;2023-07-24T08:51:51;14.63;;;11.35;;
24547;SDS011;12713;51.624;4.924;2023-07-24T08:54:24;14.93;;;11.70;;
24547;SDS011;12713;51.624;4.924;2023-07-24T08:57:00;17.08;;;13.75;;
24547;SDS011;12713;51.624;4.924;2023-07-24T08:59:29;16.85;;;13.52;;
24547;SDS011;12713;51.624;4.924;2023-07-24T09:02:02;13.38;;;11.40;;
24547;SDS011;12713;51.624;4.924;2023-07-24T09:04:31;16.85;;;12.20;;
24547;SDS011;12713;51.624;4.924;2023-07-24T09:07:01;13.77;;;11.32;;
24547;SDS011;12713;51.624;4.924;2023-07-24T09:09:33;15.07;;;11.77;;
24547;SDS011;12713;51.624;4.924;2023-07-24T09:12:02;17.70;;;12.82;;
24547;SDS011;12713;51.624;4.924;2023-07-24T09:14:31;16.88;;;12.13;;
24547;SDS011;12713;51.624;4.924;2023-07-24T09:17:08;16.13;;;12.15;;
24547;SDS011;12713;51.624;4.924;2023-07-24T09:19:36;11.55;;;10.20;;
24547;SDS011;12713;51.624;4.924;2023-07-24T09:22:18;11.60;;;9.80;;
24547;SDS011;12713;51.624;4.924;2023-07-24T09:24:54;16.08;;;10.98;;
24547;SDS011;12713;51.624;4.924;2023-07-24T09:27:23;13.25;;;10.27;;
24547;SDS011;12713;51.624;4.924;2023-07-24T09:29:50;11.70;;;9.77;;
24547;SDS011;12713;51.624;4.924;2023-07-24T09:32:23;11.13;;;9.20;;
24547;SDS011;12713;51.624;4.924;2023-07-24T09:34:49;12.75;;;10.45;;
24547;SDS011;12713;51.624;4.924;2023-07-24T09:40:11;15.02;;;10.48;;
24547;SDS011;12713;51.624;4.924;2023-07-24T09:42:38;11.88;;;9.00;;
24547;SDS011;12713;51.624;4.924;2023-07-24T09:45:07;12.77;;;9.27;;
24547;SDS011;12713;51.624;4.924;2023-07-24T09:47:34;15.75;;;8.88;;
24547;SDS011;12713;51.624;4.924;2023-07-24T09:50:04;13.38;;;8.63;;
24547;SDS011;12713;51.624;4.924;2023-07-24T09:52:33;9.77;;;7.88;;
24547;SDS011;12713;51.624;4.924;2023-07-24T09:57:48;12.50;;;8.77;;
24547;SDS011;12713;51.624;4.924;2023-07-24T10:00:14;11.00;;;8.90;;
24547;SDS011;12713;51.624;4.924;2023-07-24T10:02:40;11.25;;;8.43;;
24547;SDS011;12713;51.624;4.924;2023-07-24T10:05:20;12.60;;;8.05;;
24547;SDS011;12713;51.624;4.924;2023-07-24T10:07:46;9.73;;;7.15;;
24547;SDS011;12713;51.624;4.924;2023-07-24T10:10:21;8.98;;;6.65;;
24547;SDS011;12713;51.624;4.924;2023-07-24T10:13:11;9.70;;;6.53;;
24547;SDS011;12713;51.624;4.924;2023-07-24T10:15:47;7.55;;;6.00;;
24547;SDS011;12713;51.624;4.924;2023-07-24T10:18:15;8.82;;;6.53;;
24547;SDS011;12713;51.624;4.924;2023-07-24T10:20:44;9.10;;;5.68;;
24547;SDS011;12713;51.624;4.924;2023-07-24T10:23:16;8.00;;;5.88;;
24547;SDS011;12713;51.624;4.924;2023-07-24T10:25:45;8.77;;;5.78;;
24547;SDS011;12713;51.624;4.924;2023-07-24T10:28:14;7.90;;;6.10;;
24547;SDS011;12713;51.624;4.924;2023-07-24T10:30:54;8.27;;;6.10;;
24547;SDS011;12713;51.624;4.924;2023-07-24T10:33:44;11.02;;;5.63;;
24547;SDS011;12713;51.624;4.924;2023-07-24T10:36:32;8.70;;;6.05;;
24547;SDS011;12713;51.624;4.924;2023-07-24T10:38:58;8.65;;;6.55;;
24547;SDS011;12713;51.624;4.924;2023-07-24T10:41:44;8.70;;;5.90;;
24547;SDS011;12713;51.624;4.924;2023-07-24T10:47:01;7.65;;;5.47;;
24547;SDS011;12713;51.624;4.924;2023-07-24T10:49:28;8.77;;;5.43;;
24547;SDS011;12713;51.624;4.924;2023-07-24T10:52:00;10.63;;;5.60;;
24547;SDS011;12713;51.624;4.924;2023-07-24T10:54:32;9.57;;;5.88;;
24547;SDS011;12713;51.624;4.924;2023-07-24T10:57:01;8.25;;;5.25;;
24547;SDS011;12713;51.624;4.924;2023-07-24T10:59:37;8.85;;;5.25;;
24547;SDS011;12713;51.624;4.924;2023-07-24T11:36:35;11.90;;;6.63;;
24547;SDS011;12713;51.624;4.924;2023-07-24T11:39:23;10.70;;;6.78;;
24547;SDS011;12713;51.624;4.924;2023-07-24T11:41:53;11.30;;;6.22;;
24547;SDS011;12713;51.624;4.924;2023-07-24T11:44:37;8.55;;;6.05;;
24547;SDS011;12713;51.624;4.924;2023-07-24T11:47:04;10.50;;;7.25;;
24547;SDS011;12713;51.624;4.924;2023-07-24T11:49:34;11.02;;;6.80;;
24547;SDS011;12713;51.624;4.924;2023-07-24T11:52:16;10.97;;;5.60;;
24547;SDS011;12713;51.624;4.924;2023-07-24T11:54:46;9.90;;;6.78;;
24547;SDS011;12713;51.624;4.924;2023-07-24T11:57:33;7.63;;;6.55;;
24547;SDS011;12713;51.624;4.924;2023-07-24T12:00:20;8.80;;;6.70;;
24547;SDS011;12713;51.624;4.924;2023-07-24T12:02:51;9.40;;;6.82;;
24547;SDS011;12713;51.624;4.924;2023-07-24T12:05:26;8.40;;;6.88;;
24547;SDS011;12713;51.624;4.924;2023-07-24T12:13:59;10.68;;;6.25;;
24547;SDS011;12713;51.624;4.924;2023-07-24T12:16:28;11.63;;;6.35;;
24547;SDS011;12713;51.624;4.924;2023-07-24T12:18:57;9.48;;;6.82;;
24547;SDS011;12713;51.624;4.924;2023-07-24T12:21:26;10.95;;;7.13;;
24547;SDS011;12713;51.624;4.924;2023-07-24T12:23:52;11.20;;;7.28;;
24547;SDS011;12713;51.624;4.924;2023-07-24T12:26:18;13.10;;;7.35;;
24547;SDS011;12713;51.624;4.924;2023-07-24T12:28:44;9.30;;;7.80;;
24547;SDS011;12713;51.624;4.924;2023-07-24T12:31:13;10.30;;;6.43;;
24547;SDS011;12713;51.624;4.924;2023-07-24T12:33:42;9.93;;;6.47;;
24547;SDS011;12713;51.624;4.924;2023-07-24T12:36:08;9.13;;;5.43;;
24547;SDS011;12713;51.624;4.924;2023-07-24T12:38:37;10.30;;;5.28;;
24547;SDS011;12713;51.624;4.924;2023-07-24T12:41:03;9.57;;;5.70;;
24547;SDS011;12713;51.624;4.924;2023-07-24T12:47:03;11.65;;;5.75;;
24547;SDS011;12713;51.624;4.924;2023-07-24T12:49:44;10.82;;;6.13;;
24547;SDS011;12713;51.624;4.924;2023-07-24T12:55:05;9.93;;;7.60;;
24547;SDS011;12713;51.624;4.924;2023-07-24T13:00:34;14.18;;;7.35;;
24547;SDS011;12713;51.624;4.924;2023-07-24T13:03:05;13.05;;;6.57;;
24547;SDS011;12713;51.624;4.924;2023-07-24T13:05:33;11.77;;;7.30;;
24547;SDS011;12713;51.624;4.924;2023-07-24T13:19:50;9.85;;;6.50;;
24547;SDS011;12713;51.624;4.924;2023-07-24T13:22:16;16.40;;;6.00;;
24547;SDS011;12713;51.624;4.924;2023-07-24T13:27:46;10.07;;;5.00;;
24547;SDS011;12713;51.624;4.924;2023-07-24T13:30:18;9.55;;;5.53;;
24547;SDS011;12713;51.624;4.924;2023-07-24T13:39:32;10.40;;;4.22;;
24547;SDS011;12713;51.624;4.924;2023-07-24T13:41:59;7.18;;;3.60;;
24547;SDS011;12713;51.624;4.924;2023-07-24T13:44:36;4.85;;;3.70;;
24547;SDS011;12713;51.624;4.924;2023-07-24T13:47:05;5.68;;;3.60;;
24547;SDS011;12713;51.624;4.924;2023-07-24T13:49:37;3.97;;;3.47;;
24547;SDS011;12713;51.624;4.924;2023-07-24T13:52:44;6.55;;;4.07;;
24547;SDS011;12713;51.624;4.924;2023-07-24T13:55:17;6.60;;;4.28;;
24547;SDS011;12713;51.624;4.924;2023-07-24T13:58:06;7.00;;;4.18;;
24547;SDS011;12713;51.624;4.924;2023-07-24T14:03:58;10.35;;;4.53;;
24547;SDS011;12713;51.624;4.924;2023-07-24T14:06:28;8.07;;;4.65;;
24547;SDS011;12713;51.624;4.924;2023-07-24T14:12:14;6.65;;;4.30;;
24547;SDS011;12713;51.624;4.924;2023-07-24T14:15:04;7.25;;;4.57;;
24547;SDS011;12713;51.624;4.924;2023-07-24T14:17:35;7.70;;;4.03;;
24547;SDS011;12713;51.624;4.924;2023-07-24T14:20:05;7.82;;;3.45;;
24547;SDS011;12713;51.624;4.924;2023-07-24T14:22:31;5.45;;;2.85;;
24547;SDS011;12713;51.624;4.924;2023-07-24T14:25:00;7.05;;;3.00;;
24547;SDS011;12713;51.624;4.924;2023-07-24T14:30:42;7.50;;;3.30;;
24547;SDS011;12713;51.624;4.924;2023-07-24T14:33:08;5.38;;;3.67;;
24547;SDS011;12713;51.624;4.924;2023-07-24T14:38:28;7.53;;;4.55;;
24547;SDS011;12713;51.624;4.924;2023-07-24T14:41:04;7.97;;;4.32;;
24547;SDS011;12713;51.624;4.924;2023-07-24T14:43:37;12.25;;;4.82;;
24547;SDS011;12713;51.624;4.924;2023-07-24T14:46:04;10.20;;;5.22;;
24547;SDS011;12713;51.624;4.924;2023-07-24T14:48:35;10.43;;;4.95;;
24547;SDS011;12713;51.624;4.924;2023-07-24T14:51:15;9.15;;;5.45;;
24547;SDS011;12713;51.624;4.924;2023-07-24T14:59:23;7.85;;;4.60;;
24547;SDS011;12713;51.624;4.924;2023-07-24T15:01:56;6.70;;;4.78;;
24547;SDS011;12713;51.624;4.924;2023-07-24T15:04:25;7.45;;;4.10;;
24547;SDS011;12713;51.624;4.924;2023-07-24T15:07:00;5.70;;;4.53;;
24547;SDS011;12713;51.624;4.924;2023-07-24T15:09:29;4.75;;;3.92;;
24547;SDS011;12713;51.624;4.924;2023-07-24T15:12:16;7.65;;;4.60;;
24547;SDS011;12713;51.624;4.924;2023-07-24T15:17:44;4.68;;;3.13;;
24547;SDS011;12713;51.624;4.924;2023-07-24T15:20:10;6.65;;;3.33;;
24547;SDS011;12713;51.624;4.924;2023-07-24T15:28:36;7.32;;;2.90;;
24547;SDS011;12713;51.624;4.924;2023-07-24T15:31:02;7.78;;;3.03;;
24547;SDS011;12713;51.624;4.924;2023-07-24T15:33:30;11.48;;;3.38;;
24547;SDS011;12713;51.624;4.924;2023-07-24T15:35:56;8.25;;;2.95;;
24547;SDS011;12713;51.624;4.924;2023-07-24T15:41:27;7.00;;;3.05;;
24547;SDS011;12713;51.624;4.924;2023-07-24T15:44:02;6.65;;;2.92;;
24547;SDS011;12713;51.624;4.924;2023-07-24T15:49:31;6.68;;;2.67;;
24547;SDS011;12713;51.624;4.924;2023-07-24T15:52:06;4.43;;;2.33;;
24547;SDS011;12713;51.624;4.924;2023-07-24T15:54:35;6.45;;;2.20;;
24547;SDS011;12713;51.624;4.924;2023-07-24T16:13:33;5.75;;;1.60;;
24547;SDS011;12713;51.624;4.924;2023-07-24T16:16:04;6.70;;;1.80;;
24547;SDS011;12713;51.624;4.924;2023-07-24T16:24:44;3.75;;;1.42;;
24547;SDS011;12713;51.624;4.924;2023-07-24T16:27:10;6.45;;;1.80;;
24547;SDS011;12713;51.624;4.924;2023-07-24T16:29:40;6.00;;;1.60;;
24547;SDS011;12713;51.624;4.924;2023-07-24T16:32:15;8.63;;;1.67;;
24547;SDS011;12713;51.624;4.924;2023-07-24T16:34:48;2.72;;;1.40;;
24547;SDS011;12713;51.624;4.924;2023-07-24T16:37:35;4.53;;;1.45;;
24547;SDS011;12713;51.624;4.924;2023-07-24T16:40:44;4.55;;;1.92;;
24547;SDS011;12713;51.624;4.924;2023-07-24T16:43:02;4.22;;;1.45;;
24547;SDS011;12713;51.624;4.924;2023-07-24T16:45:31;3.92;;;1.35;;
24547;SDS011;12713;51.624;4.924;2023-07-24T16:47:57;3.83;;;1.00;;
24547;SDS011;12713;51.624;4.924;2023-07-24T16:50:31;4.32;;;1.10;;
24547;SDS011;12713;51.624;4.924;2023-07-24T16:53:02;3.70;;;1.00;;
24547;SDS011;12713;51.624;4.924;2023-07-24T16:55:28;1.88;;;0.95;;
24547;SDS011;12713;51.624;4.924;2023-07-24T16:58:05;6.90;;;1.35;;
24547;SDS011;12713;51.624;4.924;2023-07-24T17:00:47;2.88;;;1.10;;
24547;SDS011;12713;51.624;4.924;2023-07-24T17:03:39;3.25;;;0.80;;
24547;SDS011;12713;51.624;4.924;2023-07-24T17:09:40;7.30;;;0.98;;
24547;SDS011;12713;51.624;4.924;2023-07-24T17:12:09;2.53;;;0.95;;
24547;SDS011;12713;51.624;4.924;2023-07-24T17:14:43;4.75;;;1.23;;
24547;SDS011;12713;51.624;4.924;2023-07-24T17:17:09;2.70;;;0.82;;
24547;SDS011;12713;51.624;4.924;2023-07-24T17:19:35;5.35;;;1.10;;
24547;SDS011;12713;51.624;4.924;2023-07-24T17:22:01;3.85;;;1.23;;
24547;SDS011;12713;51.624;4.924;2023-07-24T17:24:27;3.75;;;1.40;;
24547;SDS011;12713;51.624;4.924;2023-07-24T17:27:03;3.70;;;1.20;;
24547;SDS011;12713;51.624;4.924;2023-07-24T17:29:29;5.45;;;1.40;;
24547;SDS011;12713;51.624;4.924;2023-07-24T17:31:55;3.55;;;1.38;;
24547;SDS011;12713;51.624;4.924;2023-07-24T17:34:30;6.13;;;1.65;;
24547;SDS011;12713;51.624;4.924;2023-07-24T17:37:02;5.40;;;1.67;;
24547;SDS011;12713;51.624;4.924;2023-07-24T17:39:28;3.25;;;1.65;;
24547;SDS011;12713;51.624;4.924;2023-07-24T17:42:04;3.60;;;1.40;;
24547;SDS011;12713;51.624;4.924;2023-07-24T17:44:30;4.18;;;1.38;;
24547;SDS011;12713;51.624;4.924;2023-07-24T17:46:56;4.43;;;1.60;;
24547;SDS011;12713;51.624;4.924;2023-07-24T17:49:25;4.53;;;1.38;;
24547;SDS011;12713;51.624;4.924;2023-07-24T17:52:02;8.80;;;1.80;;
24547;SDS011;12713;51.624;4.924;2023-07-24T17:54:32;2.35;;;1.10;;
24547;SDS011;12713;51.624;4.924;2023-07-24T17:56:58;3.80;;;1.88;;
24547;SDS011;12713;51.624;4.924;2023-07-24T17:59:27;7.68;;;1.83;;
24547;SDS011;12713;51.624;4.924;2023-07-24T18:01:53;5.03;;;1.40;;
24547;SDS011;12713;51.624;4.924;2023-07-24T18:04:25;2.70;;;1.30;;
24547;SDS011;12713;51.624;4.924;2023-07-24T18:06:59;5.25;;;1.60;;
24547;SDS011;12713;51.624;4.924;2023-07-24T18:09:32;5.22;;;1.60;;
24547;SDS011;12713;51.624;4.924;2023-07-24T18:12:01;5.78;;;1.60;;